Pagina principale
METAR-TAF:

METAR-TAF

Aeroporti :

Aeroporto di Garoua

Garoua, Camerun

latitudine: 09-20N, longitudine: 013-23E, altezza: 242 m

Osservazione

Il bollettino è stato emesso 10 ore e 24 minuti fa, alle 20:00 UTC
Vento 5 kt da ovest
Temperature 26°C
Umidità 84%
Pressione 1013 hPa
Visibilità 10 km o più
nessuna nube inferiore a 1500 m e nessun cumulonembo

METAR: FKKR 262000Z 28005KT CAVOK 26/23 Q1013 NOSIG

Ora: 07:24 (06:24 UTC)

Previsione

Il bollettino è stato emesso 1 ora e 24 minuti fa, alle 05:00 UTC
Previsione valida dal 27 alle 06 UTC al 27 alle 18 UTC
Vento 7 kt da direzioni variabili
Visibilità 10 km o più
Nubi sparse ad un'altezza di 1600 ft
Temporaneamente
dal 27 alle 15 UTC al 27 alle 18 UTC
Nuvoloso ad un'altezza di 2000 ft
Poco nuvoloso ad un'altezza di 2300 ft, Cumulonembo.
temporale

TAF: FKKR 270500Z 2706/2718 VRB07KT 9999 SCT016 TEMPO 2715/2718 TS BKN020 FEW023CB

Osservazioni e previsioni meteorologiche di più di 4000 aeroporti (messaggi METAR e TAF).

Le stazioni disponibili sono rappresentate dai dischi gialli e rossi sulla carta.

Puntare il mouse per vedere il nome della stazione.

Clicca sopra per visualizzare le osservazioni e previsioni meteorologiche.

Per cambiare la mappa : fare clic sui pulsanti verdi con una croce nera per ingrandire, il pulsante verde con un trattino per diminuire, o sulla freccia verde per le mappe adiacenti.


METAR-TAF: